sensor_id;sensor_type;location;lat;lon;timestamp;P1;durP1;ratioP1;P2;durP2;ratioP2
24173;SDS011;12324;48.146;11.502;2023-02-11T00:00:14;38.03;;;26.40;;
24173;SDS011;12324;48.146;11.502;2023-02-11T00:02:42;45.83;;;28.67;;
24173;SDS011;12324;48.146;11.502;2023-02-11T00:05:12;39.80;;;26.88;;
24173;SDS011;12324;48.146;11.502;2023-02-11T00:07:40;44.55;;;26.75;;
24173;SDS011;12324;48.146;11.502;2023-02-11T00:10:07;44.47;;;25.58;;
24173;SDS011;12324;48.146;11.502;2023-02-11T00:12:34;42.00;;;26.75;;
24173;SDS011;12324;48.146;11.502;2023-02-11T00:15:02;44.95;;;27.23;;
24173;SDS011;12324;48.146;11.502;2023-02-11T00:17:29;39.90;;;27.15;;
24173;SDS011;12324;48.146;11.502;2023-02-11T00:19:57;40.88;;;26.70;;
24173;SDS011;12324;48.146;11.502;2023-02-11T00:22:24;38.38;;;26.13;;
24173;SDS011;12324;48.146;11.502;2023-02-11T00:24:51;42.85;;;27.75;;
24173;SDS011;12324;48.146;11.502;2023-02-11T00:27:18;40.75;;;26.33;;
24173;SDS011;12324;48.146;11.502;2023-02-11T00:29:45;42.30;;;27.83;;
24173;SDS011;12324;48.146;11.502;2023-02-11T00:32:12;42.33;;;27.05;;
24173;SDS011;12324;48.146;11.502;2023-02-11T00:34:39;47.17;;;27.08;;
24173;SDS011;12324;48.146;11.502;2023-02-11T00:37:06;39.45;;;27.27;;
24173;SDS011;12324;48.146;11.502;2023-02-11T00:39:33;39.00;;;26.80;;
24173;SDS011;12324;48.146;11.502;2023-02-11T00:42:00;41.22;;;26.00;;
24173;SDS011;12324;48.146;11.502;2023-02-11T00:44:27;44.33;;;27.67;;
24173;SDS011;12324;48.146;11.502;2023-02-11T00:46:54;43.20;;;26.98;;
24173;SDS011;12324;48.146;11.502;2023-02-11T00:49:22;38.22;;;26.00;;
24173;SDS011;12324;48.146;11.502;2023-02-11T00:51:50;42.05;;;26.75;;
24173;SDS011;12324;48.146;11.502;2023-02-11T00:54:17;43.17;;;27.17;;
24173;SDS011;12324;48.146;11.502;2023-02-11T00:56:44;41.95;;;26.38;;
24173;SDS011;12324;48.146;11.502;2023-02-11T00:59:11;41.38;;;27.02;;
24173;SDS011;12324;48.146;11.502;2023-02-11T01:01:38;39.75;;;25.40;;
24173;SDS011;12324;48.146;11.502;2023-02-11T01:04:05;43.88;;;25.77;;
24173;SDS011;12324;48.146;11.502;2023-02-11T01:06:32;37.13;;;25.02;;
24173;SDS011;12324;48.146;11.502;2023-02-11T01:08:59;40.67;;;25.58;;
24173;SDS011;12324;48.146;11.502;2023-02-11T01:11:26;40.53;;;24.70;;
24173;SDS011;12324;48.146;11.502;2023-02-11T01:13:53;37.25;;;24.88;;
24173;SDS011;12324;48.146;11.502;2023-02-11T01:16:20;45.45;;;25.98;;
24173;SDS011;12324;48.146;11.502;2023-02-11T01:18:47;38.90;;;24.33;;
24173;SDS011;12324;48.146;11.502;2023-02-11T01:21:14;37.03;;;24.90;;
24173;SDS011;12324;48.146;11.502;2023-02-11T01:23:42;36.40;;;24.65;;
24173;SDS011;12324;48.146;11.502;2023-02-11T01:26:09;38.92;;;24.92;;
24173;SDS011;12324;48.146;11.502;2023-02-11T01:28:36;34.58;;;22.27;;
24173;SDS011;12324;48.146;11.502;2023-02-11T01:31:03;36.63;;;24.73;;
24173;SDS011;12324;48.146;11.502;2023-02-11T01:33:30;35.40;;;23.55;;
24173;SDS011;12324;48.146;11.502;2023-02-11T01:36:00;36.15;;;23.00;;
24173;SDS011;12324;48.146;11.502;2023-02-11T01:38:28;37.47;;;23.80;;
24173;SDS011;12324;48.146;11.502;2023-02-11T01:40:56;39.22;;;21.92;;
24173;SDS011;12324;48.146;11.502;2023-02-11T01:43:25;35.10;;;22.55;;
24173;SDS011;12324;48.146;11.502;2023-02-11T01:45:54;32.78;;;21.60;;
24173;SDS011;12324;48.146;11.502;2023-02-11T01:48:24;35.33;;;22.40;;
24173;SDS011;12324;48.146;11.502;2023-02-11T01:50:54;39.65;;;24.15;;
24173;SDS011;12324;48.146;11.502;2023-02-11T01:53:22;40.70;;;23.95;;
24173;SDS011;12324;48.146;11.502;2023-02-11T01:56:08;34.85;;;21.98;;
24173;SDS011;12324;48.146;11.502;2023-02-11T01:58:55;35.78;;;22.50;;
24173;SDS011;12324;48.146;11.502;2023-02-11T02:01:26;36.92;;;23.17;;
24173;SDS011;12324;48.146;11.502;2023-02-11T02:03:55;35.45;;;21.25;;
24173;SDS011;12324;48.146;11.502;2023-02-11T02:06:26;43.20;;;25.25;;
24173;SDS011;12324;48.146;11.502;2023-02-11T02:08:56;37.05;;;23.25;;
24173;SDS011;12324;48.146;11.502;2023-02-11T02:11:27;37.05;;;24.58;;
24173;SDS011;12324;48.146;11.502;2023-02-11T02:13:54;37.47;;;22.23;;
24173;SDS011;12324;48.146;11.502;2023-02-11T02:16:21;35.13;;;23.00;;
24173;SDS011;12324;48.146;11.502;2023-02-11T02:19:00;36.45;;;22.63;;
24173;SDS011;12324;48.146;11.502;2023-02-11T02:27:35;37.45;;;22.52;;
24173;SDS011;12324;48.146;11.502;2023-02-11T02:30:23;44.03;;;22.63;;
24173;SDS011;12324;48.146;11.502;2023-02-11T02:35:52;32.72;;;21.48;;
24173;SDS011;12324;48.146;11.502;2023-02-11T02:41:12;43.25;;;21.17;;
24173;SDS011;12324;48.146;11.502;2023-02-11T02:43:40;32.78;;;22.17;;
24173;SDS011;12324;48.146;11.502;2023-02-11T02:46:30;29.67;;;19.08;;
24173;SDS011;12324;48.146;11.502;2023-02-11T02:48:56;32.15;;;19.75;;
24173;SDS011;12324;48.146;11.502;2023-02-11T03:07:19;29.00;;;17.10;;
24173;SDS011;12324;48.146;11.502;2023-02-11T03:09:54;29.38;;;17.45;;
24173;SDS011;12324;48.146;11.502;2023-02-11T03:12:24;27.20;;;16.42;;
24173;SDS011;12324;48.146;11.502;2023-02-11T03:14:53;30.08;;;17.75;;
24173;SDS011;12324;48.146;11.502;2023-02-11T03:17:20;28.92;;;16.67;;
24173;SDS011;12324;48.146;11.502;2023-02-11T03:19:49;29.70;;;16.92;;
24173;SDS011;12324;48.146;11.502;2023-02-11T03:22:28;27.80;;;16.77;;
24173;SDS011;12324;48.146;11.502;2023-02-11T03:24:57;26.40;;;16.80;;
24173;SDS011;12324;48.146;11.502;2023-02-11T03:27:27;30.45;;;16.42;;
24173;SDS011;12324;48.146;11.502;2023-02-11T03:30:00;26.60;;;15.73;;
24173;SDS011;12324;48.146;11.502;2023-02-11T03:32:32;26.80;;;15.55;;
24173;SDS011;12324;48.146;11.502;2023-02-11T03:35:06;28.40;;;16.33;;
24173;SDS011;12324;48.146;11.502;2023-02-11T03:37:38;26.73;;;14.90;;
24173;SDS011;12324;48.146;11.502;2023-02-11T03:40:07;29.33;;;16.77;;
24173;SDS011;12324;48.146;11.502;2023-02-11T03:42:37;26.60;;;14.65;;
24173;SDS011;12324;48.146;11.502;2023-02-11T03:45:10;27.90;;;14.38;;
24173;SDS011;12324;48.146;11.502;2023-02-11T03:47:39;25.88;;;14.07;;
24173;SDS011;12324;48.146;11.502;2023-02-11T03:50:07;25.58;;;14.82;;
24173;SDS011;12324;48.146;11.502;2023-02-11T03:52:34;24.98;;;15.15;;
24173;SDS011;12324;48.146;11.502;2023-02-11T03:55:04;24.50;;;13.63;;
24173;SDS011;12324;48.146;11.502;2023-02-11T03:57:33;24.92;;;13.40;;
24173;SDS011;12324;48.146;11.502;2023-02-11T04:00:00;24.75;;;13.77;;
24173;SDS011;12324;48.146;11.502;2023-02-11T04:02:31;22.00;;;13.10;;
24173;SDS011;12324;48.146;11.502;2023-02-11T04:04:59;24.40;;;13.95;;
24173;SDS011;12324;48.146;11.502;2023-02-11T04:07:26;22.75;;;12.68;;
24173;SDS011;12324;48.146;11.502;2023-02-11T04:09:53;24.67;;;13.27;;
24173;SDS011;12324;48.146;11.502;2023-02-11T04:12:21;22.92;;;13.07;;
24173;SDS011;12324;48.146;11.502;2023-02-11T04:14:48;23.25;;;12.90;;
24173;SDS011;12324;48.146;11.502;2023-02-11T04:17:15;25.15;;;14.05;;
24173;SDS011;12324;48.146;11.502;2023-02-11T04:19:42;21.92;;;12.50;;
24173;SDS011;12324;48.146;11.502;2023-02-11T04:22:10;24.20;;;11.80;;
24173;SDS011;12324;48.146;11.502;2023-02-11T04:24:37;23.10;;;12.15;;
24173;SDS011;12324;48.146;11.502;2023-02-11T04:27:04;23.60;;;13.90;;
24173;SDS011;12324;48.146;11.502;2023-02-11T04:29:31;26.75;;;13.88;;
24173;SDS011;12324;48.146;11.502;2023-02-11T04:31:59;24.60;;;13.27;;
24173;SDS011;12324;48.146;11.502;2023-02-11T04:34:26;24.08;;;13.13;;
24173;SDS011;12324;48.146;11.502;2023-02-11T04:36:53;23.83;;;12.73;;
24173;SDS011;12324;48.146;11.502;2023-02-11T04:39:20;23.83;;;13.50;;
24173;SDS011;12324;48.146;11.502;2023-02-11T04:41:47;27.48;;;14.68;;
24173;SDS011;12324;48.146;11.502;2023-02-11T04:44:14;26.02;;;14.57;;
24173;SDS011;12324;48.146;11.502;2023-02-11T04:46:41;24.63;;;14.73;;
24173;SDS011;12324;48.146;11.502;2023-02-11T04:49:10;26.33;;;14.35;;
24173;SDS011;12324;48.146;11.502;2023-02-11T04:51:38;29.35;;;14.45;;
24173;SDS011;12324;48.146;11.502;2023-02-11T04:54:05;24.85;;;14.00;;
24173;SDS011;12324;48.146;11.502;2023-02-11T04:56:32;25.90;;;14.55;;
24173;SDS011;12324;48.146;11.502;2023-02-11T04:58:59;26.08;;;14.93;;
24173;SDS011;12324;48.146;11.502;2023-02-11T05:01:27;26.48;;;14.43;;
24173;SDS011;12324;48.146;11.502;2023-02-11T05:03:54;25.48;;;14.48;;
24173;SDS011;12324;48.146;11.502;2023-02-11T05:06:21;26.60;;;15.18;;
24173;SDS011;12324;48.146;11.502;2023-02-11T05:08:48;26.25;;;15.18;;
24173;SDS011;12324;48.146;11.502;2023-02-11T05:11:17;28.60;;;15.35;;
24173;SDS011;12324;48.146;11.502;2023-02-11T05:13:44;23.73;;;13.90;;
24173;SDS011;12324;48.146;11.502;2023-02-11T05:16:11;25.85;;;14.43;;
24173;SDS011;12324;48.146;11.502;2023-02-11T05:18:42;27.25;;;15.88;;
24173;SDS011;12324;48.146;11.502;2023-02-11T05:21:11;27.38;;;14.98;;
24173;SDS011;12324;48.146;11.502;2023-02-11T05:23:38;23.55;;;14.45;;
24173;SDS011;12324;48.146;11.502;2023-02-11T05:26:06;24.77;;;15.55;;
24173;SDS011;12324;48.146;11.502;2023-02-11T05:28:33;25.00;;;14.02;;
24173;SDS011;12324;48.146;11.502;2023-02-11T05:31:01;26.20;;;14.95;;
24173;SDS011;12324;48.146;11.502;2023-02-11T05:33:28;24.00;;;15.02;;
24173;SDS011;12324;48.146;11.502;2023-02-11T05:35:58;27.27;;;14.85;;
24173;SDS011;12324;48.146;11.502;2023-02-11T05:38:26;24.80;;;14.55;;
24173;SDS011;12324;48.146;11.502;2023-02-11T05:40:53;28.17;;;14.68;;
24173;SDS011;12324;48.146;11.502;2023-02-11T05:43:20;25.23;;;14.48;;
24173;SDS011;12324;48.146;11.502;2023-02-11T05:45:47;25.95;;;14.38;;
24173;SDS011;12324;48.146;11.502;2023-02-11T05:48:15;27.48;;;15.63;;
24173;SDS011;12324;48.146;11.502;2023-02-11T05:50:43;26.15;;;14.45;;
24173;SDS011;12324;48.146;11.502;2023-02-11T05:53:10;24.30;;;14.18;;
24173;SDS011;12324;48.146;11.502;2023-02-11T05:55:37;24.00;;;13.32;;
24173;SDS011;12324;48.146;11.502;2023-02-11T05:58:05;27.98;;;14.52;;
24173;SDS011;12324;48.146;11.502;2023-02-11T06:00:33;23.35;;;13.15;;
24173;SDS011;12324;48.146;11.502;2023-02-11T06:03:00;23.75;;;12.93;;
24173;SDS011;12324;48.146;11.502;2023-02-11T06:05:29;23.17;;;13.48;;
24173;SDS011;12324;48.146;11.502;2023-02-11T06:07:56;23.92;;;13.30;;
24173;SDS011;12324;48.146;11.502;2023-02-11T06:10:24;25.08;;;12.98;;
24173;SDS011;12324;48.146;11.502;2023-02-11T06:12:51;22.77;;;12.93;;
24173;SDS011;12324;48.146;11.502;2023-02-11T06:15:18;20.88;;;12.45;;
24173;SDS011;12324;48.146;11.502;2023-02-11T06:17:45;26.33;;;12.63;;
24173;SDS011;12324;48.146;11.502;2023-02-11T06:20:12;22.08;;;12.75;;
24173;SDS011;12324;48.146;11.502;2023-02-11T06:22:39;23.25;;;11.93;;
24173;SDS011;12324;48.146;11.502;2023-02-11T06:25:06;21.60;;;11.48;;
24173;SDS011;12324;48.146;11.502;2023-02-11T06:27:34;22.45;;;12.35;;
24173;SDS011;12324;48.146;11.502;2023-02-11T06:30:01;22.73;;;11.30;;
24173;SDS011;12324;48.146;11.502;2023-02-11T06:32:28;20.88;;;11.48;;
24173;SDS011;12324;48.146;11.502;2023-02-11T06:35:10;23.77;;;12.90;;
24173;SDS011;12324;48.146;11.502;2023-02-11T06:37:38;23.60;;;12.10;;
24173;SDS011;12324;48.146;11.502;2023-02-11T06:40:05;21.30;;;11.80;;
24173;SDS011;12324;48.146;11.502;2023-02-11T06:42:32;22.85;;;12.25;;
24173;SDS011;12324;48.146;11.502;2023-02-11T06:45:01;24.35;;;12.13;;
24173;SDS011;12324;48.146;11.502;2023-02-11T06:47:28;24.17;;;12.70;;
24173;SDS011;12324;48.146;11.502;2023-02-11T06:49:55;20.83;;;11.60;;
24173;SDS011;12324;48.146;11.502;2023-02-11T06:52:22;20.95;;;11.13;;
24173;SDS011;12324;48.146;11.502;2023-02-11T06:54:49;19.58;;;11.30;;
24173;SDS011;12324;48.146;11.502;2023-02-11T06:57:16;18.75;;;9.70;;
24173;SDS011;12324;48.146;11.502;2023-02-11T06:59:43;24.83;;;11.95;;
24173;SDS011;12324;48.146;11.502;2023-02-11T07:02:11;24.52;;;12.68;;
24173;SDS011;12324;48.146;11.502;2023-02-11T07:04:38;22.45;;;12.43;;
24173;SDS011;12324;48.146;11.502;2023-02-11T07:07:06;22.33;;;11.38;;
24173;SDS011;12324;48.146;11.502;2023-02-11T07:09:33;20.92;;;10.82;;
24173;SDS011;12324;48.146;11.502;2023-02-11T07:12:00;23.33;;;12.32;;
24173;SDS011;12324;48.146;11.502;2023-02-11T07:14:27;22.10;;;11.23;;
24173;SDS011;12324;48.146;11.502;2023-02-11T07:16:54;21.98;;;11.98;;
24173;SDS011;12324;48.146;11.502;2023-02-11T07:19:21;21.33;;;11.25;;
24173;SDS011;12324;48.146;11.502;2023-02-11T07:21:48;23.25;;;11.18;;
24173;SDS011;12324;48.146;11.502;2023-02-11T07:24:15;20.75;;;10.80;;
24173;SDS011;12324;48.146;11.502;2023-02-11T07:26:42;21.85;;;11.95;;
24173;SDS011;12324;48.146;11.502;2023-02-11T07:29:09;21.35;;;10.95;;
24173;SDS011;12324;48.146;11.502;2023-02-11T07:31:36;20.55;;;10.95;;
24173;SDS011;12324;48.146;11.502;2023-02-11T07:34:04;21.13;;;10.90;;
24173;SDS011;12324;48.146;11.502;2023-02-11T07:36:31;21.02;;;9.88;;
24173;SDS011;12324;48.146;11.502;2023-02-11T07:38:58;19.15;;;9.45;;
24173;SDS011;12324;48.146;11.502;2023-02-11T07:41:25;18.95;;;10.30;;
24173;SDS011;12324;48.146;11.502;2023-02-11T07:43:53;22.45;;;10.65;;
24173;SDS011;12324;48.146;11.502;2023-02-11T07:46:21;19.65;;;10.20;;
24173;SDS011;12324;48.146;11.502;2023-02-11T07:48:48;20.00;;;10.25;;
24173;SDS011;12324;48.146;11.502;2023-02-11T07:53:42;23.13;;;9.93;;
24173;SDS011;12324;48.146;11.502;2023-02-11T07:56:10;19.77;;;8.90;;
24173;SDS011;12324;48.146;11.502;2023-02-11T07:58:38;18.58;;;8.95;;
24173;SDS011;12324;48.146;11.502;2023-02-11T08:01:08;20.50;;;9.45;;
24173;SDS011;12324;48.146;11.502;2023-02-11T08:03:36;18.77;;;8.77;;
24173;SDS011;12324;48.146;11.502;2023-02-11T08:06:07;21.08;;;9.63;;
24173;SDS011;12324;48.146;11.502;2023-02-11T08:08:35;18.83;;;9.60;;
24173;SDS011;12324;48.146;11.502;2023-02-11T08:11:09;17.23;;;8.57;;
24173;SDS011;12324;48.146;11.502;2023-02-11T08:13:36;19.20;;;9.48;;
24173;SDS011;12324;48.146;11.502;2023-02-11T08:16:03;21.45;;;10.98;;
24173;SDS011;12324;48.146;11.502;2023-02-11T08:18:31;19.98;;;9.63;;
24173;SDS011;12324;48.146;11.502;2023-02-11T08:21:05;19.92;;;9.23;;
24173;SDS011;12324;48.146;11.502;2023-02-11T08:26:00;23.20;;;10.07;;
24173;SDS011;12324;48.146;11.502;2023-02-11T08:28:28;42.88;;;13.30;;
24173;SDS011;12324;48.146;11.502;2023-02-11T08:30:55;30.63;;;11.88;;
24173;SDS011;12324;48.146;11.502;2023-02-11T08:33:22;22.77;;;11.57;;
24173;SDS011;12324;48.146;11.502;2023-02-11T08:35:49;23.45;;;11.90;;
24173;SDS011;12324;48.146;11.502;2023-02-11T08:38:16;22.60;;;11.70;;
24173;SDS011;12324;48.146;11.502;2023-02-11T08:40:43;19.95;;;10.30;;
24173;SDS011;12324;48.146;11.502;2023-02-11T08:43:10;24.45;;;10.85;;
24173;SDS011;12324;48.146;11.502;2023-02-11T08:45:37;21.30;;;11.45;;
24173;SDS011;12324;48.146;11.502;2023-02-11T08:48:04;24.25;;;10.55;;
24173;SDS011;12324;48.146;11.502;2023-02-11T08:50:31;25.58;;;10.85;;
24173;SDS011;12324;48.146;11.502;2023-02-11T08:52:59;22.98;;;11.00;;
24173;SDS011;12324;48.146;11.502;2023-02-11T08:55:26;22.73;;;9.98;;
24173;SDS011;12324;48.146;11.502;2023-02-11T08:57:54;20.95;;;10.63;;
24173;SDS011;12324;48.146;11.502;2023-02-11T09:00:21;22.52;;;12.32;;
24173;SDS011;12324;48.146;11.502;2023-02-11T09:02:48;21.83;;;12.23;;
24173;SDS011;12324;48.146;11.502;2023-02-11T09:05:15;24.23;;;13.55;;
24173;SDS011;12324;48.146;11.502;2023-02-11T09:07:42;24.90;;;14.43;;
24173;SDS011;12324;48.146;11.502;2023-02-11T09:10:10;23.70;;;13.80;;
24173;SDS011;12324;48.146;11.502;2023-02-11T09:12:37;23.15;;;12.73;;
24173;SDS011;12324;48.146;11.502;2023-02-11T09:15:04;22.83;;;13.95;;
24173;SDS011;12324;48.146;11.502;2023-02-11T09:17:31;25.98;;;14.02;;
24173;SDS011;12324;48.146;11.502;2023-02-11T09:19:58;23.60;;;13.27;;
24173;SDS011;12324;48.146;11.502;2023-02-11T09:22:25;22.45;;;12.63;;
24173;SDS011;12324;48.146;11.502;2023-02-11T09:24:53;22.70;;;12.82;;
24173;SDS011;12324;48.146;11.502;2023-02-11T09:27:20;27.63;;;13.90;;
24173;SDS011;12324;48.146;11.502;2023-02-11T09:29:47;24.48;;;13.90;;
24173;SDS011;12324;48.146;11.502;2023-02-11T09:32:14;22.15;;;13.40;;
24173;SDS011;12324;48.146;11.502;2023-02-11T09:34:41;26.10;;;13.50;;
24173;SDS011;12324;48.146;11.502;2023-02-11T09:37:08;25.17;;;13.75;;
24173;SDS011;12324;48.146;11.502;2023-02-11T09:39:35;26.17;;;11.98;;
24173;SDS011;12324;48.146;11.502;2023-02-11T09:44:33;24.15;;;13.23;;
24173;SDS011;12324;48.146;11.502;2023-02-11T09:47:02;25.05;;;12.85;;
24173;SDS011;12324;48.146;11.502;2023-02-11T09:49:32;24.58;;;12.18;;
24173;SDS011;12324;48.146;11.502;2023-02-11T09:52:02;26.60;;;13.35;;
24173;SDS011;12324;48.146;11.502;2023-02-11T09:54:33;23.10;;;13.38;;
24173;SDS011;12324;48.146;11.502;2023-02-11T09:57:01;21.52;;;12.63;;
24173;SDS011;12324;48.146;11.502;2023-02-11T09:59:28;23.73;;;11.48;;
24173;SDS011;12324;48.146;11.502;2023-02-11T10:02:03;22.63;;;13.27;;
24173;SDS011;12324;48.146;11.502;2023-02-11T10:07:16;23.90;;;13.90;;
24173;SDS011;12324;48.146;11.502;2023-02-11T10:20:36;23.70;;;13.95;;
24173;SDS011;12324;48.146;11.502;2023-02-11T10:23:18;25.27;;;15.32;;
24173;SDS011;12324;48.146;11.502;2023-02-11T10:25:50;23.63;;;14.30;;
24173;SDS011;12324;48.146;11.502;2023-02-11T10:28:20;25.33;;;14.73;;
24173;SDS011;12324;48.146;11.502;2023-02-11T10:36:06;25.83;;;14.73;;
24173;SDS011;12324;48.146;11.502;2023-02-11T10:38:33;25.05;;;14.48;;
24173;SDS011;12324;48.146;11.502;2023-02-11T10:41:02;22.75;;;13.73;;
24173;SDS011;12324;48.146;11.502;2023-02-11T10:43:30;23.83;;;13.60;;
24173;SDS011;12324;48.146;11.502;2023-02-11T10:45:57;27.70;;;13.23;;
24173;SDS011;12324;48.146;11.502;2023-02-11T10:48:36;25.98;;;14.60;;
24173;SDS011;12324;48.146;11.502;2023-02-11T10:51:23;24.63;;;14.10;;
24173;SDS011;12324;48.146;11.502;2023-02-11T10:56:31;25.33;;;13.07;;
24173;SDS011;12324;48.146;11.502;2023-02-11T11:01:40;28.55;;;14.95;;
24173;SDS011;12324;48.146;11.502;2023-02-11T11:04:20;26.00;;;14.15;;
24173;SDS011;12324;48.146;11.502;2023-02-11T11:06:52;26.05;;;13.77;;
24173;SDS011;12324;48.146;11.502;2023-02-11T11:09:27;26.83;;;14.05;;
24173;SDS011;12324;48.146;11.502;2023-02-11T11:11:55;25.45;;;14.48;;
24173;SDS011;12324;48.146;11.502;2023-02-11T11:14:23;28.77;;;13.43;;
24173;SDS011;12324;48.146;11.502;2023-02-11T11:16:54;28.75;;;15.55;;
24173;SDS011;12324;48.146;11.502;2023-02-11T11:19:22;24.63;;;14.60;;
24173;SDS011;12324;48.146;11.502;2023-02-11T11:21:53;26.05;;;13.55;;
24173;SDS011;12324;48.146;11.502;2023-02-11T11:24:22;28.52;;;14.60;;
24173;SDS011;12324;48.146;11.502;2023-02-11T11:26:53;24.23;;;12.27;;
24173;SDS011;12324;48.146;11.502;2023-02-11T11:29:22;23.73;;;11.93;;
24173;SDS011;12324;48.146;11.502;2023-02-11T11:31:55;24.10;;;13.05;;
24173;SDS011;12324;48.146;11.502;2023-02-11T11:34:28;21.65;;;12.27;;
24173;SDS011;12324;48.146;11.502;2023-02-11T11:36:56;24.45;;;13.23;;
24173;SDS011;12324;48.146;11.502;2023-02-11T11:39:25;27.17;;;12.75;;
24173;SDS011;12324;48.146;11.502;2023-02-11T11:41:57;23.42;;;12.20;;
24173;SDS011;12324;48.146;11.502;2023-02-11T11:44:29;23.80;;;12.93;;
24173;SDS011;12324;48.146;11.502;2023-02-11T11:47:18;23.13;;;12.07;;
24173;SDS011;12324;48.146;11.502;2023-02-11T11:54:44;22.17;;;12.83;;
24173;SDS011;12324;48.146;11.502;2023-02-11T11:57:15;23.27;;;12.55;;
24173;SDS011;12324;48.146;11.502;2023-02-11T11:59:43;22.90;;;12.60;;
24173;SDS011;12324;48.146;11.502;2023-02-11T12:02:31;24.60;;;12.82;;
24173;SDS011;12324;48.146;11.502;2023-02-11T12:05:01;25.38;;;12.60;;
24173;SDS011;12324;48.146;11.502;2023-02-11T12:07:38;22.70;;;13.25;;
24173;SDS011;12324;48.146;11.502;2023-02-11T12:10:28;26.55;;;13.18;;
24173;SDS011;12324;48.146;11.502;2023-02-11T12:13:07;24.88;;;13.07;;
24173;SDS011;12324;48.146;11.502;2023-02-11T12:15:42;22.98;;;12.43;;
24173;SDS011;12324;48.146;11.502;2023-02-11T12:18:16;26.63;;;13.32;;
24173;SDS011;12324;48.146;11.502;2023-02-11T12:20:54;28.48;;;13.70;;
24173;SDS011;12324;48.146;11.502;2023-02-11T12:28:51;24.37;;;11.43;;
24173;SDS011;12324;48.146;11.502;2023-02-11T12:31:26;26.40;;;13.50;;
24173;SDS011;12324;48.146;11.502;2023-02-11T12:36:48;23.98;;;11.63;;
24173;SDS011;12324;48.146;11.502;2023-02-11T12:42:15;25.20;;;13.52;;
24173;SDS011;12324;48.146;11.502;2023-02-11T12:45:15;23.95;;;12.45;;
24173;SDS011;12324;48.146;11.502;2023-02-11T12:48:09;21.95;;;11.50;;
24173;SDS011;12324;48.146;11.502;2023-02-11T12:50:48;25.42;;;13.20;;
24173;SDS011;12324;48.146;11.502;2023-02-11T12:53:24;27.92;;;13.60;;
24173;SDS011;12324;48.146;11.502;2023-02-11T12:55:55;25.75;;;12.68;;
24173;SDS011;12324;48.146;11.502;2023-02-11T12:58:24;28.95;;;13.73;;
24173;SDS011;12324;48.146;11.502;2023-02-11T13:01:11;24.27;;;12.60;;
24173;SDS011;12324;48.146;11.502;2023-02-11T13:06:10;30.85;;;12.48;;
24173;SDS011;12324;48.146;11.502;2023-02-11T13:08:40;22.50;;;11.27;;
24173;SDS011;12324;48.146;11.502;2023-02-11T13:11:16;22.52;;;12.27;;
24173;SDS011;12324;48.146;11.502;2023-02-11T13:19:43;23.67;;;11.07;;
24173;SDS011;12324;48.146;11.502;2023-02-11T13:26:45;22.08;;;11.38;;
24173;SDS011;12324;48.146;11.502;2023-02-11T13:32:06;20.75;;;10.80;;
24173;SDS011;12324;48.146;11.502;2023-02-11T13:37:20;26.35;;;11.73;;
24173;SDS011;12324;48.146;11.502;2023-02-11T13:40:01;23.08;;;10.63;;
24173;SDS011;12324;48.146;11.502;2023-02-11T13:42:29;26.80;;;11.48;;
24173;SDS011;12324;48.146;11.502;2023-02-11T13:44:56;22.33;;;12.02;;
24173;SDS011;12324;48.146;11.502;2023-02-11T13:47:31;24.25;;;10.98;;
24173;SDS011;12324;48.146;11.502;2023-02-11T13:49:59;24.13;;;11.07;;
24173;SDS011;12324;48.146;11.502;2023-02-11T13:52:30;19.20;;;10.30;;
24173;SDS011;12324;48.146;11.502;2023-02-11T13:55:02;21.55;;;10.90;;
24173;SDS011;12324;48.146;11.502;2023-02-11T13:57:32;21.02;;;9.95;;
24173;SDS011;12324;48.146;11.502;2023-02-11T14:02:45;21.40;;;10.57;;
24173;SDS011;12324;48.146;11.502;2023-02-11T14:06:09;21.02;;;10.95;;
24173;SDS011;12324;48.146;11.502;2023-02-11T14:16:28;19.95;;;9.90;;
24173;SDS011;12324;48.146;11.502;2023-02-11T14:19:03;21.70;;;11.40;;
24173;SDS011;12324;48.146;11.502;2023-02-11T14:21:35;21.38;;;10.23;;
24173;SDS011;12324;48.146;11.502;2023-02-11T14:26:34;22.48;;;11.18;;
24173;SDS011;12324;48.146;11.502;2023-02-11T14:29:12;22.73;;;11.00;;
24173;SDS011;12324;48.146;11.502;2023-02-11T14:34:18;18.60;;;8.50;;
24173;SDS011;12324;48.146;11.502;2023-02-11T14:36:53;24.65;;;12.88;;
24173;SDS011;12324;48.146;11.502;2023-02-11T14:39:27;25.02;;;12.68;;
24173;SDS011;12324;48.146;11.502;2023-02-11T14:41:58;21.58;;;11.73;;
24173;SDS011;12324;48.146;11.502;2023-02-11T14:44:27;25.17;;;14.88;;
24173;SDS011;12324;48.146;11.502;2023-02-11T14:46:54;22.95;;;13.73;;
24173;SDS011;12324;48.146;11.502;2023-02-11T14:49:24;31.27;;;16.30;;
24173;SDS011;12324;48.146;11.502;2023-02-11T14:51:57;26.40;;;15.52;;
24173;SDS011;12324;48.146;11.502;2023-02-11T14:54:26;28.80;;;14.30;;
24173;SDS011;12324;48.146;11.502;2023-02-11T14:57:28;27.13;;;16.35;;
24173;SDS011;12324;48.146;11.502;2023-02-11T14:59:54;20.58;;;12.50;;
24173;SDS011;12324;48.146;11.502;2023-02-11T15:02:27;29.05;;;16.50;;
24173;SDS011;12324;48.146;11.502;2023-02-11T15:05:11;25.85;;;15.60;;
24173;SDS011;12324;48.146;11.502;2023-02-11T15:07:42;28.50;;;15.90;;
24173;SDS011;12324;48.146;11.502;2023-02-11T15:10:14;28.02;;;16.13;;
24173;SDS011;12324;48.146;11.502;2023-02-11T15:12:43;20.23;;;11.80;;
24173;SDS011;12324;48.146;11.502;2023-02-11T15:15:14;28.30;;;16.67;;
24173;SDS011;12324;48.146;11.502;2023-02-11T15:17:41;29.88;;;16.65;;
24173;SDS011;12324;48.146;11.502;2023-02-11T15:20:15;28.45;;;16.92;;
24173;SDS011;12324;48.146;11.502;2023-02-11T15:22:44;27.40;;;16.83;;
24173;SDS011;12324;48.146;11.502;2023-02-11T15:25:13;26.10;;;15.98;;
24173;SDS011;12324;48.146;11.502;2023-02-11T15:27:43;28.17;;;16.70;;
24173;SDS011;12324;48.146;11.502;2023-02-11T15:32:52;26.15;;;16.55;;
24173;SDS011;12324;48.146;11.502;2023-02-11T15:35:34;27.65;;;17.67;;
24173;SDS011;12324;48.146;11.502;2023-02-11T15:38:01;29.83;;;19.75;;
24173;SDS011;12324;48.146;11.502;2023-02-11T15:40:31;25.70;;;15.60;;
24173;SDS011;12324;48.146;11.502;2023-02-11T15:45:32;29.33;;;17.33;;
24173;SDS011;12324;48.146;11.502;2023-02-11T15:48:07;29.55;;;18.83;;
24173;SDS011;12324;48.146;11.502;2023-02-11T15:50:35;27.58;;;18.05;;
24173;SDS011;12324;48.146;11.502;2023-02-11T15:53:04;27.75;;;18.13;;
24173;SDS011;12324;48.146;11.502;2023-02-11T15:55:38;30.73;;;18.15;;
24173;SDS011;12324;48.146;11.502;2023-02-11T15:58:07;28.65;;;16.95;;
24173;SDS011;12324;48.146;11.502;2023-02-11T16:00:44;29.20;;;19.17;;
24173;SDS011;12324;48.146;11.502;2023-02-11T16:03:21;31.38;;;18.25;;
24173;SDS011;12324;48.146;11.502;2023-02-11T16:05:49;32.50;;;19.13;;
24173;SDS011;12324;48.146;11.502;2023-02-11T16:08:23;30.85;;;18.20;;
24173;SDS011;12324;48.146;11.502;2023-02-11T16:11:00;32.30;;;19.55;;
24173;SDS011;12324;48.146;11.502;2023-02-11T16:13:29;30.50;;;19.10;;
24173;SDS011;12324;48.146;11.502;2023-02-11T16:15:59;31.70;;;21.70;;
24173;SDS011;12324;48.146;11.502;2023-02-11T16:18:30;29.25;;;19.33;;